sensor_id;sensor_type;location;lat;lon;timestamp;P1;durP1;ratioP1;P2;durP2;ratioP2
7719;SDS011;3902;49.474;8.616;2023-03-16T00:00:45;3.97;;;3.60;;
7719;SDS011;3902;49.474;8.616;2023-03-16T00:03:11;4.67;;;4.03;;
7719;SDS011;3902;49.474;8.616;2023-03-16T00:05:43;4.13;;;3.73;;
7719;SDS011;3902;49.474;8.616;2023-03-16T00:08:10;4.20;;;3.70;;
7719;SDS011;3902;49.474;8.616;2023-03-16T00:10:36;4.60;;;3.80;;
7719;SDS011;3902;49.474;8.616;2023-03-16T00:13:02;4.97;;;4.20;;
7719;SDS011;3902;49.474;8.616;2023-03-16T00:15:28;4.40;;;3.60;;
7719;SDS011;3902;49.474;8.616;2023-03-16T00:17:54;5.77;;;4.23;;
7719;SDS011;3902;49.474;8.616;2023-03-16T00:20:19;4.40;;;4.00;;
7719;SDS011;3902;49.474;8.616;2023-03-16T00:22:45;4.50;;;4.10;;
7719;SDS011;3902;49.474;8.616;2023-03-16T00:25:11;4.60;;;4.20;;
7719;SDS011;3902;49.474;8.616;2023-03-16T00:27:38;5.80;;;3.90;;
7719;SDS011;3902;49.474;8.616;2023-03-16T00:30:04;4.67;;;4.27;;
7719;SDS011;3902;49.474;8.616;2023-03-16T00:32:34;4.13;;;3.73;;
7719;SDS011;3902;49.474;8.616;2023-03-16T00:35:01;5.73;;;3.90;;
7719;SDS011;3902;49.474;8.616;2023-03-16T00:37:28;4.87;;;3.80;;
7719;SDS011;3902;49.474;8.616;2023-03-16T00:39:55;4.43;;;4.00;;
7719;SDS011;3902;49.474;8.616;2023-03-16T00:42:21;4.40;;;4.00;;
7719;SDS011;3902;49.474;8.616;2023-03-16T00:44:51;4.37;;;3.77;;
7719;SDS011;3902;49.474;8.616;2023-03-16T00:47:21;3.90;;;3.60;;
7719;SDS011;3902;49.474;8.616;2023-03-16T00:49:50;3.87;;;3.47;;
7719;SDS011;3902;49.474;8.616;2023-03-16T00:52:15;4.20;;;3.80;;
7719;SDS011;3902;49.474;8.616;2023-03-16T00:54:45;3.83;;;3.53;;
7719;SDS011;3902;49.474;8.616;2023-03-16T00:57:15;3.53;;;3.23;;
7719;SDS011;3902;49.474;8.616;2023-03-16T00:59:45;4.40;;;3.80;;
7719;SDS011;3902;49.474;8.616;2023-03-16T01:02:12;3.73;;;3.43;;
7719;SDS011;3902;49.474;8.616;2023-03-16T01:04:39;4.23;;;3.83;;
7719;SDS011;3902;49.474;8.616;2023-03-16T01:07:09;4.00;;;3.70;;
7719;SDS011;3902;49.474;8.616;2023-03-16T01:09:37;3.43;;;3.13;;
7719;SDS011;3902;49.474;8.616;2023-03-16T01:12:08;4.07;;;3.67;;
7719;SDS011;3902;49.474;8.616;2023-03-16T01:14:36;3.73;;;3.40;;
7719;SDS011;3902;49.474;8.616;2023-03-16T01:17:02;4.00;;;3.70;;
7719;SDS011;3902;49.474;8.616;2023-03-16T01:19:30;4.80;;;4.17;;
7719;SDS011;3902;49.474;8.616;2023-03-16T01:21:59;4.27;;;3.87;;
7719;SDS011;3902;49.474;8.616;2023-03-16T01:24:26;4.33;;;3.93;;
7719;SDS011;3902;49.474;8.616;2023-03-16T01:26:52;4.30;;;4.00;;
7719;SDS011;3902;49.474;8.616;2023-03-16T01:29:18;4.60;;;3.73;;
7719;SDS011;3902;49.474;8.616;2023-03-16T01:31:44;4.73;;;4.33;;
7719;SDS011;3902;49.474;8.616;2023-03-16T01:34:09;4.07;;;3.67;;
7719;SDS011;3902;49.474;8.616;2023-03-16T01:36:40;4.70;;;3.87;;
7719;SDS011;3902;49.474;8.616;2023-03-16T01:39:06;4.20;;;3.80;;
7719;SDS011;3902;49.474;8.616;2023-03-16T01:41:32;3.90;;;3.57;;
7719;SDS011;3902;49.474;8.616;2023-03-16T01:43:57;4.30;;;3.90;;
7719;SDS011;3902;49.474;8.616;2023-03-16T01:46:24;4.70;;;3.93;;
7719;SDS011;3902;49.474;8.616;2023-03-16T01:51:45;4.43;;;4.00;;
7719;SDS011;3902;49.474;8.616;2023-03-16T01:54:20;4.80;;;4.30;;
7719;SDS011;3902;49.474;8.616;2023-03-16T01:59:37;5.47;;;4.70;;
7719;SDS011;3902;49.474;8.616;2023-03-16T02:02:07;5.17;;;4.60;;
7719;SDS011;3902;49.474;8.616;2023-03-16T02:04:50;5.37;;;4.77;;
7719;SDS011;3902;49.474;8.616;2023-03-16T02:07:27;5.03;;;4.53;;
7719;SDS011;3902;49.474;8.616;2023-03-16T02:09:56;5.50;;;5.00;;
7719;SDS011;3902;49.474;8.616;2023-03-16T02:12:25;5.90;;;5.30;;
7719;SDS011;3902;49.474;8.616;2023-03-16T02:14:51;6.73;;;5.53;;
7719;SDS011;3902;49.474;8.616;2023-03-16T02:17:18;5.40;;;4.90;;
7719;SDS011;3902;49.474;8.616;2023-03-16T02:22:36;7.00;;;4.83;;
7719;SDS011;3902;49.474;8.616;2023-03-16T02:25:06;5.70;;;5.10;;
7719;SDS011;3902;49.474;8.616;2023-03-16T02:30:27;7.03;;;5.10;;
7719;SDS011;3902;49.474;8.616;2023-03-16T02:32:52;5.30;;;4.80;;
7719;SDS011;3902;49.474;8.616;2023-03-16T02:35:19;5.80;;;5.17;;
7719;SDS011;3902;49.474;8.616;2023-03-16T02:37:45;5.90;;;5.40;;
7719;SDS011;3902;49.474;8.616;2023-03-16T02:40:21;6.43;;;5.83;;
7719;SDS011;3902;49.474;8.616;2023-03-16T02:42:52;6.87;;;6.17;;
7719;SDS011;3902;49.474;8.616;2023-03-16T02:45:35;6.23;;;5.63;;
7719;SDS011;3902;49.474;8.616;2023-03-16T02:48:15;6.87;;;6.17;;
7719;SDS011;3902;49.474;8.616;2023-03-16T02:51:06;6.37;;;5.47;;
7719;SDS011;3902;49.474;8.616;2023-03-16T02:53:32;6.63;;;6.03;;
7719;SDS011;3902;49.474;8.616;2023-03-16T02:55:58;6.73;;;6.10;;
7719;SDS011;3902;49.474;8.616;2023-03-16T02:58:23;9.00;;;5.90;;
7719;SDS011;3902;49.474;8.616;2023-03-16T03:00:49;6.27;;;5.77;;
7719;SDS011;3902;49.474;8.616;2023-03-16T03:03:15;7.87;;;6.27;;
7719;SDS011;3902;49.474;8.616;2023-03-16T03:05:40;6.70;;;6.07;;
7719;SDS011;3902;49.474;8.616;2023-03-16T03:08:06;6.97;;;6.30;;
7719;SDS011;3902;49.474;8.616;2023-03-16T03:10:31;7.50;;;6.80;;
7719;SDS011;3902;49.474;8.616;2023-03-16T03:12:57;6.87;;;6.23;;
7719;SDS011;3902;49.474;8.616;2023-03-16T03:15:23;7.23;;;6.60;;
7719;SDS011;3902;49.474;8.616;2023-03-16T03:17:49;7.70;;;7.00;;
7719;SDS011;3902;49.474;8.616;2023-03-16T03:20:14;6.80;;;6.10;;
7719;SDS011;3902;49.474;8.616;2023-03-16T03:22:40;7.17;;;6.47;;
7719;SDS011;3902;49.474;8.616;2023-03-16T03:25:08;7.53;;;6.83;;
7719;SDS011;3902;49.474;8.616;2023-03-16T03:27:36;6.97;;;6.27;;
7719;SDS011;3902;49.474;8.616;2023-03-16T03:30:02;7.10;;;6.47;;
7719;SDS011;3902;49.474;8.616;2023-03-16T03:32:28;7.70;;;6.93;;
7719;SDS011;3902;49.474;8.616;2023-03-16T03:34:54;7.23;;;6.53;;
7719;SDS011;3902;49.474;8.616;2023-03-16T03:37:19;8.10;;;6.80;;
7719;SDS011;3902;49.474;8.616;2023-03-16T03:39:45;7.17;;;6.47;;
7719;SDS011;3902;49.474;8.616;2023-03-16T03:42:12;6.60;;;5.87;;
7719;SDS011;3902;49.474;8.616;2023-03-16T03:44:38;8.20;;;7.00;;
7719;SDS011;3902;49.474;8.616;2023-03-16T03:47:03;8.33;;;7.00;;
7719;SDS011;3902;49.474;8.616;2023-03-16T03:49:29;7.23;;;6.53;;
7719;SDS011;3902;49.474;8.616;2023-03-16T03:51:55;7.90;;;7.10;;
7719;SDS011;3902;49.474;8.616;2023-03-16T03:54:23;8.00;;;6.53;;
7719;SDS011;3902;49.474;8.616;2023-03-16T03:56:49;7.80;;;7.00;;
7719;SDS011;3902;49.474;8.616;2023-03-16T03:59:16;8.30;;;7.37;;
7719;SDS011;3902;49.474;8.616;2023-03-16T04:01:42;7.80;;;7.07;;
7719;SDS011;3902;49.474;8.616;2023-03-16T04:04:07;8.23;;;7.43;;
7719;SDS011;3902;49.474;8.616;2023-03-16T04:06:33;9.30;;;7.47;;
7719;SDS011;3902;49.474;8.616;2023-03-16T04:08:58;7.93;;;7.13;;
7719;SDS011;3902;49.474;8.616;2023-03-16T04:11:24;7.40;;;6.70;;
7719;SDS011;3902;49.474;8.616;2023-03-16T04:13:50;7.43;;;6.63;;
7719;SDS011;3902;49.474;8.616;2023-03-16T04:16:17;6.73;;;6.13;;
7719;SDS011;3902;49.474;8.616;2023-03-16T04:18:43;6.97;;;6.30;;
7719;SDS011;3902;49.474;8.616;2023-03-16T04:21:14;7.73;;;6.80;;
7719;SDS011;3902;49.474;8.616;2023-03-16T04:23:41;7.80;;;7.00;;
7719;SDS011;3902;49.474;8.616;2023-03-16T04:26:07;7.40;;;6.70;;
7719;SDS011;3902;49.474;8.616;2023-03-16T04:28:33;7.97;;;6.30;;
7719;SDS011;3902;49.474;8.616;2023-03-16T04:31:03;7.50;;;6.50;;
7719;SDS011;3902;49.474;8.616;2023-03-16T04:33:30;7.63;;;6.57;;
7719;SDS011;3902;49.474;8.616;2023-03-16T04:36:00;7.30;;;6.57;;
7719;SDS011;3902;49.474;8.616;2023-03-16T04:38:26;6.53;;;5.90;;
7719;SDS011;3902;49.474;8.616;2023-03-16T04:40:53;6.70;;;6.00;;
7719;SDS011;3902;49.474;8.616;2023-03-16T04:43:19;7.00;;;5.80;;
7719;SDS011;3902;49.474;8.616;2023-03-16T04:45:44;5.70;;;5.20;;
7719;SDS011;3902;49.474;8.616;2023-03-16T04:48:10;5.53;;;4.90;;
7719;SDS011;3902;49.474;8.616;2023-03-16T04:50:35;6.00;;;5.40;;
7719;SDS011;3902;49.474;8.616;2023-03-16T04:53:01;5.47;;;4.97;;
7719;SDS011;3902;49.474;8.616;2023-03-16T04:55:28;4.90;;;4.50;;
7719;SDS011;3902;49.474;8.616;2023-03-16T04:57:54;4.77;;;4.30;;
7719;SDS011;3902;49.474;8.616;2023-03-16T05:00:21;4.70;;;4.13;;
7719;SDS011;3902;49.474;8.616;2023-03-16T05:02:47;4.97;;;4.53;;
7719;SDS011;3902;49.474;8.616;2023-03-16T05:05:14;4.40;;;4.00;;
7719;SDS011;3902;49.474;8.616;2023-03-16T05:07:40;5.50;;;5.00;;
7719;SDS011;3902;49.474;8.616;2023-03-16T05:10:07;5.50;;;5.00;;
7719;SDS011;3902;49.474;8.616;2023-03-16T05:12:33;4.93;;;4.53;;
7719;SDS011;3902;49.474;8.616;2023-03-16T05:14:59;4.20;;;3.80;;
7719;SDS011;3902;49.474;8.616;2023-03-16T05:17:25;5.20;;;4.70;;
7719;SDS011;3902;49.474;8.616;2023-03-16T05:19:51;5.20;;;4.30;;
7719;SDS011;3902;49.474;8.616;2023-03-16T05:22:16;5.00;;;4.60;;
7719;SDS011;3902;49.474;8.616;2023-03-16T05:24:42;5.30;;;4.80;;
7719;SDS011;3902;49.474;8.616;2023-03-16T05:27:07;5.30;;;4.70;;
7719;SDS011;3902;49.474;8.616;2023-03-16T05:29:33;4.87;;;4.40;;
7719;SDS011;3902;49.474;8.616;2023-03-16T05:31:59;5.33;;;4.83;;
7719;SDS011;3902;49.474;8.616;2023-03-16T05:34:25;5.10;;;4.60;;
7719;SDS011;3902;49.474;8.616;2023-03-16T05:36:50;5.17;;;4.67;;
7719;SDS011;3902;49.474;8.616;2023-03-16T05:39:16;6.20;;;5.50;;
7719;SDS011;3902;49.474;8.616;2023-03-16T05:41:41;5.80;;;5.30;;
7719;SDS011;3902;49.474;8.616;2023-03-16T05:44:07;5.53;;;5.03;;
7719;SDS011;3902;49.474;8.616;2023-03-16T05:46:33;5.50;;;5.00;;
7719;SDS011;3902;49.474;8.616;2023-03-16T05:48:59;5.67;;;5.10;;
7719;SDS011;3902;49.474;8.616;2023-03-16T05:51:24;5.50;;;5.00;;
7719;SDS011;3902;49.474;8.616;2023-03-16T05:53:50;5.10;;;4.60;;
7719;SDS011;3902;49.474;8.616;2023-03-16T05:56:20;5.20;;;4.80;;
7719;SDS011;3902;49.474;8.616;2023-03-16T05:58:52;5.87;;;5.27;;
7719;SDS011;3902;49.474;8.616;2023-03-16T06:01:19;5.80;;;5.30;;
7719;SDS011;3902;49.474;8.616;2023-03-16T06:03:46;5.67;;;5.17;;
7719;SDS011;3902;49.474;8.616;2023-03-16T06:06:13;7.37;;;5.90;;
7719;SDS011;3902;49.474;8.616;2023-03-16T06:08:42;14.47;;;8.53;;
7719;SDS011;3902;49.474;8.616;2023-03-16T06:11:08;23.80;;;8.63;;
7719;SDS011;3902;49.474;8.616;2023-03-16T06:13:34;14.13;;;9.00;;
7719;SDS011;3902;49.474;8.616;2023-03-16T06:16:00;13.03;;;9.07;;
7719;SDS011;3902;49.474;8.616;2023-03-16T06:18:26;12.67;;;9.00;;
7719;SDS011;3902;49.474;8.616;2023-03-16T06:20:52;12.13;;;8.33;;
7719;SDS011;3902;49.474;8.616;2023-03-16T06:23:17;14.20;;;8.60;;
7719;SDS011;3902;49.474;8.616;2023-03-16T06:25:45;9.50;;;7.57;;
7719;SDS011;3902;49.474;8.616;2023-03-16T06:28:11;8.60;;;6.90;;
7719;SDS011;3902;49.474;8.616;2023-03-16T06:30:37;9.87;;;7.67;;
7719;SDS011;3902;49.474;8.616;2023-03-16T06:33:03;8.60;;;6.60;;
7719;SDS011;3902;49.474;8.616;2023-03-16T06:35:28;7.20;;;6.50;;
7719;SDS011;3902;49.474;8.616;2023-03-16T06:37:54;7.07;;;6.37;;
7719;SDS011;3902;49.474;8.616;2023-03-16T06:40:19;7.63;;;6.47;;
7719;SDS011;3902;49.474;8.616;2023-03-16T06:42:45;7.37;;;6.40;;
7719;SDS011;3902;49.474;8.616;2023-03-16T06:45:11;6.37;;;5.77;;
7719;SDS011;3902;49.474;8.616;2023-03-16T06:47:37;6.43;;;5.87;;
7719;SDS011;3902;49.474;8.616;2023-03-16T06:50:03;6.40;;;5.70;;
7719;SDS011;3902;49.474;8.616;2023-03-16T06:52:28;6.20;;;5.60;;
7719;SDS011;3902;49.474;8.616;2023-03-16T06:54:54;8.43;;;6.40;;
7719;SDS011;3902;49.474;8.616;2023-03-16T06:57:22;6.90;;;6.20;;
7719;SDS011;3902;49.474;8.616;2023-03-16T06:59:47;6.83;;;6.20;;
7719;SDS011;3902;49.474;8.616;2023-03-16T07:02:13;6.70;;;6.10;;
7719;SDS011;3902;49.474;8.616;2023-03-16T07:04:39;7.40;;;6.67;;
7719;SDS011;3902;49.474;8.616;2023-03-16T07:07:05;7.53;;;6.80;;
7719;SDS011;3902;49.474;8.616;2023-03-16T07:09:31;6.60;;;6.00;;
7719;SDS011;3902;49.474;8.616;2023-03-16T07:11:57;6.60;;;6.00;;
7719;SDS011;3902;49.474;8.616;2023-03-16T07:14:22;6.77;;;6.17;;
7719;SDS011;3902;49.474;8.616;2023-03-16T07:16:50;6.70;;;6.10;;
7719;SDS011;3902;49.474;8.616;2023-03-16T07:19:16;6.30;;;5.63;;
7719;SDS011;3902;49.474;8.616;2023-03-16T07:21:42;6.50;;;5.90;;
7719;SDS011;3902;49.474;8.616;2023-03-16T07:24:08;6.67;;;6.07;;
7719;SDS011;3902;49.474;8.616;2023-03-16T07:26:34;6.87;;;6.17;;
7719;SDS011;3902;49.474;8.616;2023-03-16T07:28:59;7.33;;;6.57;;
7719;SDS011;3902;49.474;8.616;2023-03-16T07:31:25;7.00;;;6.10;;
7719;SDS011;3902;49.474;8.616;2023-03-16T07:33:51;7.40;;;6.13;;
7719;SDS011;3902;49.474;8.616;2023-03-16T07:36:17;6.87;;;6.17;;
7719;SDS011;3902;49.474;8.616;2023-03-16T07:38:42;7.00;;;6.40;;
7719;SDS011;3902;49.474;8.616;2023-03-16T07:41:08;7.27;;;6.07;;
7719;SDS011;3902;49.474;8.616;2023-03-16T07:43:34;6.60;;;6.00;;
7719;SDS011;3902;49.474;8.616;2023-03-16T07:45:59;6.40;;;5.80;;
7719;SDS011;3902;49.474;8.616;2023-03-16T07:48:25;6.77;;;6.07;;
7719;SDS011;3902;49.474;8.616;2023-03-16T07:50:51;6.63;;;6.03;;
7719;SDS011;3902;49.474;8.616;2023-03-16T07:53:18;6.90;;;6.30;;
7719;SDS011;3902;49.474;8.616;2023-03-16T07:55:44;6.10;;;5.60;;
7719;SDS011;3902;49.474;8.616;2023-03-16T07:58:10;6.57;;;5.90;;
7719;SDS011;3902;49.474;8.616;2023-03-16T08:00:36;6.40;;;5.80;;
7719;SDS011;3902;49.474;8.616;2023-03-16T08:03:02;6.33;;;5.73;;
7719;SDS011;3902;49.474;8.616;2023-03-16T08:05:27;6.77;;;6.07;;
7719;SDS011;3902;49.474;8.616;2023-03-16T08:07:53;7.13;;;6.43;;
7719;SDS011;3902;49.474;8.616;2023-03-16T08:10:22;7.83;;;5.73;;
7719;SDS011;3902;49.474;8.616;2023-03-16T08:12:48;5.90;;;5.30;;
7719;SDS011;3902;49.474;8.616;2023-03-16T08:15:15;6.27;;;5.23;;
7719;SDS011;3902;49.474;8.616;2023-03-16T08:17:41;6.07;;;5.47;;
7719;SDS011;3902;49.474;8.616;2023-03-16T08:20:06;6.47;;;5.60;;
7719;SDS011;3902;49.474;8.616;2023-03-16T08:22:35;6.37;;;5.77;;
7719;SDS011;3902;49.474;8.616;2023-03-16T08:25:04;5.60;;;5.10;;
7719;SDS011;3902;49.474;8.616;2023-03-16T08:27:32;5.57;;;5.07;;
7719;SDS011;3902;49.474;8.616;2023-03-16T08:29:57;5.60;;;5.10;;
7719;SDS011;3902;49.474;8.616;2023-03-16T08:32:28;4.70;;;4.30;;
7719;SDS011;3902;49.474;8.616;2023-03-16T08:34:54;5.40;;;4.90;;
7719;SDS011;3902;49.474;8.616;2023-03-16T08:37:21;5.87;;;5.00;;
7719;SDS011;3902;49.474;8.616;2023-03-16T08:39:48;5.30;;;4.80;;
7719;SDS011;3902;49.474;8.616;2023-03-16T08:42:15;5.63;;;4.80;;
7719;SDS011;3902;49.474;8.616;2023-03-16T08:44:41;5.10;;;4.50;;
7719;SDS011;3902;49.474;8.616;2023-03-16T08:47:08;4.87;;;4.37;;
7719;SDS011;3902;49.474;8.616;2023-03-16T08:49:34;5.27;;;4.77;;
7719;SDS011;3902;49.474;8.616;2023-03-16T08:52:01;5.03;;;4.13;;
7719;SDS011;3902;49.474;8.616;2023-03-16T08:54:27;6.50;;;5.00;;
7719;SDS011;3902;49.474;8.616;2023-03-16T08:56:53;5.23;;;4.63;;
7719;SDS011;3902;49.474;8.616;2023-03-16T08:59:19;4.80;;;4.23;;
7719;SDS011;3902;49.474;8.616;2023-03-16T09:01:44;4.50;;;4.10;;
7719;SDS011;3902;49.474;8.616;2023-03-16T09:04:10;5.13;;;4.57;;
7719;SDS011;3902;49.474;8.616;2023-03-16T09:06:37;4.53;;;3.80;;
7719;SDS011;3902;49.474;8.616;2023-03-16T09:09:03;4.33;;;3.93;;
7719;SDS011;3902;49.474;8.616;2023-03-16T09:11:28;4.77;;;4.37;;
7719;SDS011;3902;49.474;8.616;2023-03-16T09:13:57;4.40;;;4.00;;
7719;SDS011;3902;49.474;8.616;2023-03-16T09:16:24;4.30;;;3.90;;
7719;SDS011;3902;49.474;8.616;2023-03-16T09:18:50;4.10;;;3.70;;
7719;SDS011;3902;49.474;8.616;2023-03-16T09:21:17;4.13;;;3.80;;
7719;SDS011;3902;49.474;8.616;2023-03-16T09:23:43;4.10;;;3.70;;
7719;SDS011;3902;49.474;8.616;2023-03-16T09:26:09;3.90;;;3.60;;
7719;SDS011;3902;49.474;8.616;2023-03-16T09:28:37;5.23;;;3.90;;
7719;SDS011;3902;49.474;8.616;2023-03-16T09:31:04;3.40;;;3.10;;
7719;SDS011;3902;49.474;8.616;2023-03-16T09:33:31;4.00;;;3.60;;
7719;SDS011;3902;49.474;8.616;2023-03-16T09:35:57;4.13;;;3.43;;
7719;SDS011;3902;49.474;8.616;2023-03-16T09:38:24;3.30;;;3.00;;
7719;SDS011;3902;49.474;8.616;2023-03-16T09:41:05;3.93;;;3.60;;
7719;SDS011;3902;49.474;8.616;2023-03-16T09:46:27;3.90;;;3.60;;
7719;SDS011;3902;49.474;8.616;2023-03-16T09:48:56;4.30;;;3.90;;
7719;SDS011;3902;49.474;8.616;2023-03-16T09:51:35;4.53;;;4.00;;
7719;SDS011;3902;49.474;8.616;2023-03-16T09:54:19;4.07;;;3.40;;
7719;SDS011;3902;49.474;8.616;2023-03-16T09:57:39;3.70;;;3.40;;
7719;SDS011;3902;49.474;8.616;2023-03-16T10:00:17;3.13;;;2.70;;
7719;SDS011;3902;49.474;8.616;2023-03-16T10:05:36;3.53;;;3.23;;
7719;SDS011;3902;49.474;8.616;2023-03-16T10:13:27;3.77;;;3.20;;
7719;SDS011;3902;49.474;8.616;2023-03-16T10:16:19;4.50;;;3.80;;
7719;SDS011;3902;49.474;8.616;2023-03-16T10:18:56;4.00;;;3.47;;
7719;SDS011;3902;49.474;8.616;2023-03-16T10:21:25;4.30;;;3.70;;
7719;SDS011;3902;49.474;8.616;2023-03-16T10:23:51;3.90;;;3.57;;
7719;SDS011;3902;49.474;8.616;2023-03-16T10:26:32;3.90;;;3.50;;
7719;SDS011;3902;49.474;8.616;2023-03-16T10:29:07;4.10;;;3.70;;
7719;SDS011;3902;49.474;8.616;2023-03-16T10:31:37;3.70;;;3.40;;
7719;SDS011;3902;49.474;8.616;2023-03-16T10:34:05;5.33;;;3.60;;
7719;SDS011;3902;49.474;8.616;2023-03-16T10:36:32;3.90;;;3.50;;
7719;SDS011;3902;49.474;8.616;2023-03-16T10:39:10;6.07;;;4.07;;
7719;SDS011;3902;49.474;8.616;2023-03-16T10:41:58;5.70;;;3.80;;
7719;SDS011;3902;49.474;8.616;2023-03-16T10:44:24;4.00;;;3.50;;
7719;SDS011;3902;49.474;8.616;2023-03-16T10:46:58;4.10;;;3.67;;
7719;SDS011;3902;49.474;8.616;2023-03-16T10:49:34;4.13;;;3.20;;
7719;SDS011;3902;49.474;8.616;2023-03-16T10:52:26;3.80;;;3.37;;
7719;SDS011;3902;49.474;8.616;2023-03-16T10:57:56;3.83;;;3.30;;
7719;SDS011;3902;49.474;8.616;2023-03-16T11:00:27;5.60;;;3.23;;
7719;SDS011;3902;49.474;8.616;2023-03-16T11:02:55;3.80;;;3.40;;
7719;SDS011;3902;49.474;8.616;2023-03-16T11:05:27;3.43;;;3.13;;
7719;SDS011;3902;49.474;8.616;2023-03-16T11:10:41;3.90;;;3.07;;
7719;SDS011;3902;49.474;8.616;2023-03-16T11:13:13;3.07;;;2.77;;
7719;SDS011;3902;49.474;8.616;2023-03-16T11:18:57;3.80;;;3.20;;
7719;SDS011;3902;49.474;8.616;2023-03-16T11:20:59;3.13;;;2.43;;
7719;SDS011;3902;49.474;8.616;2023-03-16T11:23:39;3.13;;;2.50;;
7719;SDS011;3902;49.474;8.616;2023-03-16T11:26:14;2.50;;;2.30;;
7719;SDS011;3902;49.474;8.616;2023-03-16T11:28:59;2.50;;;2.30;;
7719;SDS011;3902;49.474;8.616;2023-03-16T11:31:38;2.73;;;2.30;;
7719;SDS011;3902;49.474;8.616;2023-03-16T11:34:18;4.27;;;2.57;;
7719;SDS011;3902;49.474;8.616;2023-03-16T11:36:49;3.07;;;1.93;;
7719;SDS011;3902;49.474;8.616;2023-03-16T11:39:23;2.90;;;2.30;;
7719;SDS011;3902;49.474;8.616;2023-03-16T11:44:50;2.30;;;2.10;;
7719;SDS011;3902;49.474;8.616;2023-03-16T11:53:16;2.40;;;2.20;;
7719;SDS011;3902;49.474;8.616;2023-03-16T11:56:01;2.10;;;2.00;;
7719;SDS011;3902;49.474;8.616;2023-03-16T12:04:14;2.70;;;2.50;;
7719;SDS011;3902;49.474;8.616;2023-03-16T12:17:54;3.20;;;2.90;;
7719;SDS011;3902;49.474;8.616;2023-03-16T12:20:36;4.03;;;3.23;;
7719;SDS011;3902;49.474;8.616;2023-03-16T12:23:16;4.27;;;3.60;;
7719;SDS011;3902;49.474;8.616;2023-03-16T12:25:51;3.10;;;2.80;;
7719;SDS011;3902;49.474;8.616;2023-03-16T12:28:24;2.80;;;2.60;;
7719;SDS011;3902;49.474;8.616;2023-03-16T12:31:00;3.20;;;2.80;;
7719;SDS011;3902;49.474;8.616;2023-03-16T12:39:26;2.77;;;2.43;;
7719;SDS011;3902;49.474;8.616;2023-03-16T12:42:15;3.30;;;3.00;;
7719;SDS011;3902;49.474;8.616;2023-03-16T12:44:47;6.23;;;3.10;;
7719;SDS011;3902;49.474;8.616;2023-03-16T12:49:52;2.53;;;2.07;;
7719;SDS011;3902;49.474;8.616;2023-03-16T12:52:18;2.27;;;2.07;;
7719;SDS011;3902;49.474;8.616;2023-03-16T12:55:04;3.00;;;2.23;;
7719;SDS011;3902;49.474;8.616;2023-03-16T12:57:57;1.77;;;1.63;;
7719;SDS011;3902;49.474;8.616;2023-03-16T13:00:35;2.30;;;1.53;;
7719;SDS011;3902;49.474;8.616;2023-03-16T13:03:03;2.23;;;2.03;;
7719;SDS011;3902;49.474;8.616;2023-03-16T13:05:34;2.33;;;2.13;;
7719;SDS011;3902;49.474;8.616;2023-03-16T13:10:30;2.20;;;2.10;;
7719;SDS011;3902;49.474;8.616;2023-03-16T13:13:05;2.00;;;1.80;;
7719;SDS011;3902;49.474;8.616;2023-03-16T13:15:38;3.53;;;2.30;;
7719;SDS011;3902;49.474;8.616;2023-03-16T13:23:19;1.80;;;1.70;;
7719;SDS011;3902;49.474;8.616;2023-03-16T13:25:59;2.27;;;1.63;;
7719;SDS011;3902;49.474;8.616;2023-03-16T13:28:51;2.40;;;1.97;;
7719;SDS011;3902;49.474;8.616;2023-03-16T13:31:33;3.50;;;2.23;;
7719;SDS011;3902;49.474;8.616;2023-03-16T13:34:05;2.00;;;1.80;;
7719;SDS011;3902;49.474;8.616;2023-03-16T13:36:35;2.17;;;1.97;;
7719;SDS011;3902;49.474;8.616;2023-03-16T13:39:03;1.67;;;1.57;;
7719;SDS011;3902;49.474;8.616;2023-03-16T13:41:37;2.00;;;1.80;;
7719;SDS011;3902;49.474;8.616;2023-03-16T13:44:03;4.53;;;1.90;;
7719;SDS011;3902;49.474;8.616;2023-03-16T13:46:29;2.47;;;1.90;;
7719;SDS011;3902;49.474;8.616;2023-03-16T13:48:56;1.60;;;1.50;;
7719;SDS011;3902;49.474;8.616;2023-03-16T13:51:24;1.77;;;1.50;;
7719;SDS011;3902;49.474;8.616;2023-03-16T13:53:50;2.47;;;1.47;;
7719;SDS011;3902;49.474;8.616;2023-03-16T13:56:16;1.70;;;1.60;;
7719;SDS011;3902;49.474;8.616;2023-03-16T13:58:46;2.27;;;1.67;;
7719;SDS011;3902;49.474;8.616;2023-03-16T14:01:24;2.00;;;1.70;;
7719;SDS011;3902;49.474;8.616;2023-03-16T14:03:53;2.00;;;1.80;;
7719;SDS011;3902;49.474;8.616;2023-03-16T14:06:27;3.70;;;2.00;;
7719;SDS011;3902;49.474;8.616;2023-03-16T14:08:59;2.80;;;1.80;;
7719;SDS011;3902;49.474;8.616;2023-03-16T14:11:29;2.27;;;1.87;;
7719;SDS011;3902;49.474;8.616;2023-03-16T14:13:56;1.70;;;1.50;;
7719;SDS011;3902;49.474;8.616;2023-03-16T14:16:25;3.07;;;2.13;;
7719;SDS011;3902;49.474;8.616;2023-03-16T14:19:03;2.70;;;2.03;;
7719;SDS011;3902;49.474;8.616;2023-03-16T14:21:36;2.37;;;2.17;;
7719;SDS011;3902;49.474;8.616;2023-03-16T14:24:12;2.80;;;2.20;;
7719;SDS011;3902;49.474;8.616;2023-03-16T14:26:53;2.00;;;1.80;;
7719;SDS011;3902;49.474;8.616;2023-03-16T14:29:20;3.30;;;1.93;;
7719;SDS011;3902;49.474;8.616;2023-03-16T14:31:50;2.47;;;2.27;;
7719;SDS011;3902;49.474;8.616;2023-03-16T14:34:20;2.40;;;1.93;;
7719;SDS011;3902;49.474;8.616;2023-03-16T14:36:46;3.40;;;2.37;;
7719;SDS011;3902;49.474;8.616;2023-03-16T14:39:15;2.70;;;2.03;;
7719;SDS011;3902;49.474;8.616;2023-03-16T14:41:48;3.37;;;2.17;;
7719;SDS011;3902;49.474;8.616;2023-03-16T14:44:22;2.90;;;2.20;;
7719;SDS011;3902;49.474;8.616;2023-03-16T14:46:48;2.03;;;1.83;;
7719;SDS011;3902;49.474;8.616;2023-03-16T14:49:26;2.27;;;2.03;;
7719;SDS011;3902;49.474;8.616;2023-03-16T14:51:57;2.80;;;2.30;;
7719;SDS011;3902;49.474;8.616;2023-03-16T14:54:26;2.53;;;2.17;;
7719;SDS011;3902;49.474;8.616;2023-03-16T14:56:53;2.37;;;1.90;;
7719;SDS011;3902;49.474;8.616;2023-03-16T14:59:24;2.43;;;1.90;;
7719;SDS011;3902;49.474;8.616;2023-03-16T15:01:50;1.90;;;1.80;;
7719;SDS011;3902;49.474;8.616;2023-03-16T15:04:18;2.50;;;1.90;;
7719;SDS011;3902;49.474;8.616;2023-03-16T15:06:49;2.80;;;1.70;;
7719;SDS011;3902;49.474;8.616;2023-03-16T15:09:24;2.80;;;2.23;;
7719;SDS011;3902;49.474;8.616;2023-03-16T15:11:55;1.90;;;1.70;;
7719;SDS011;3902;49.474;8.616;2023-03-16T15:14:22;1.93;;;1.47;;
7719;SDS011;3902;49.474;8.616;2023-03-16T15:17:06;1.73;;;1.63;;
7719;SDS011;3902;49.474;8.616;2023-03-16T15:19:33;1.73;;;1.47;;
7719;SDS011;3902;49.474;8.616;2023-03-16T15:21:59;2.13;;;1.60;;
7719;SDS011;3902;49.474;8.616;2023-03-16T15:24:25;1.60;;;1.50;;
7719;SDS011;3902;49.474;8.616;2023-03-16T15:26:52;2.00;;;1.80;;
7719;SDS011;3902;49.474;8.616;2023-03-16T15:29:18;1.83;;;1.50;;
7719;SDS011;3902;49.474;8.616;2023-03-16T15:31:44;3.20;;;1.50;;
7719;SDS011;3902;49.474;8.616;2023-03-16T15:34:10;2.47;;;1.83;;
7719;SDS011;3902;49.474;8.616;2023-03-16T15:36:35;1.50;;;1.40;;
7719;SDS011;3902;49.474;8.616;2023-03-16T15:39:01;2.37;;;1.67;;
7719;SDS011;3902;49.474;8.616;2023-03-16T15:41:27;1.87;;;1.37;;
7719;SDS011;3902;49.474;8.616;2023-03-16T15:43:52;2.10;;;1.80;;
7719;SDS011;3902;49.474;8.616;2023-03-16T15:46:24;1.97;;;1.60;;
7719;SDS011;3902;49.474;8.616;2023-03-16T15:48:50;2.47;;;1.30;;
7719;SDS011;3902;49.474;8.616;2023-03-16T15:51:20;2.93;;;2.03;;
7719;SDS011;3902;49.474;8.616;2023-03-16T15:53:53;1.63;;;1.50;;
7719;SDS011;3902;49.474;8.616;2023-03-16T15:56:24;1.73;;;1.30;;
7719;SDS011;3902;49.474;8.616;2023-03-16T15:58:54;1.30;;;1.20;;
7719;SDS011;3902;49.474;8.616;2023-03-16T16:01:24;3.07;;;1.80;;
7719;SDS011;3902;49.474;8.616;2023-03-16T16:03:52;1.70;;;1.43;;
7719;SDS011;3902;49.474;8.616;2023-03-16T16:06:18;1.87;;;1.60;;
7719;SDS011;3902;49.474;8.616;2023-03-16T16:08:44;1.50;;;1.40;;
7719;SDS011;3902;49.474;8.616;2023-03-16T16:11:16;2.10;;;1.50;;
7719;SDS011;3902;49.474;8.616;2023-03-16T16:13:45;1.53;;;1.43;;
7719;SDS011;3902;49.474;8.616;2023-03-16T16:16:12;1.90;;;1.67;;
7719;SDS011;3902;49.474;8.616;2023-03-16T16:18:39;1.40;;;1.30;;
7719;SDS011;3902;49.474;8.616;2023-03-16T16:21:06;1.93;;;1.47;;
7719;SDS011;3902;49.474;8.616;2023-03-16T16:23:38;1.37;;;1.20;;
7719;SDS011;3902;49.474;8.616;2023-03-16T16:26:11;3.30;;;1.50;;
7719;SDS011;3902;49.474;8.616;2023-03-16T16:28:43;1.50;;;1.40;;
7719;SDS011;3902;49.474;8.616;2023-03-16T16:31:10;1.63;;;1.30;;
7719;SDS011;3902;49.474;8.616;2023-03-16T16:33:37;1.70;;;1.30;;
7719;SDS011;3902;49.474;8.616;2023-03-16T16:36:04;1.53;;;1.37;;
7719;SDS011;3902;49.474;8.616;2023-03-16T16:38:34;1.40;;;1.30;;